sensor_id;sensor_type;location;lat;lon;timestamp;P1;durP1;ratioP1;P2;durP2;ratioP2
5710;SDS011;61291;52.524;13.422;2023-07-28T00:00:09;84.20;;;78.70;;
5710;SDS011;61291;52.524;13.422;2023-07-28T00:02:35;84.63;;;78.93;;
5710;SDS011;61291;52.524;13.422;2023-07-28T00:05:01;84.80;;;79.37;;
5710;SDS011;61291;52.524;13.422;2023-07-28T00:07:26;81.70;;;76.53;;
5710;SDS011;61291;52.524;13.422;2023-07-28T00:09:52;83.43;;;77.83;;
5710;SDS011;61291;52.524;13.422;2023-07-28T00:12:17;81.60;;;76.50;;
5710;SDS011;61291;52.524;13.422;2023-07-28T00:14:43;82.00;;;77.00;;
5710;SDS011;61291;52.524;13.422;2023-07-28T00:17:08;76.30;;;71.37;;
5710;SDS011;61291;52.524;13.422;2023-07-28T00:19:33;79.97;;;75.23;;
5710;SDS011;61291;52.524;13.422;2023-07-28T00:21:59;81.77;;;76.67;;
5710;SDS011;61291;52.524;13.422;2023-07-28T00:24:24;85.57;;;80.20;;
5710;SDS011;61291;52.524;13.422;2023-07-28T00:26:50;81.63;;;76.63;;
5710;SDS011;61291;52.524;13.422;2023-07-28T00:29:15;85.47;;;80.17;;
5710;SDS011;61291;52.524;13.422;2023-07-28T00:31:41;85.07;;;79.28;;
5710;SDS011;61291;52.524;13.422;2023-07-28T00:34:06;87.37;;;81.87;;
5710;SDS011;61291;52.524;13.422;2023-07-28T00:36:32;90.57;;;85.17;;
5710;SDS011;61291;52.524;13.422;2023-07-28T00:38:57;88.77;;;83.07;;
5710;SDS011;61291;52.524;13.422;2023-07-28T00:41:23;87.03;;;81.47;;
5710;SDS011;61291;52.524;13.422;2023-07-28T00:43:49;86.03;;;80.30;;
5710;SDS011;61291;52.524;13.422;2023-07-28T00:46:14;80.90;;;75.57;;
5710;SDS011;61291;52.524;13.422;2023-07-28T00:48:40;86.17;;;80.00;;
5710;SDS011;61291;52.524;13.422;2023-07-28T00:51:07;84.37;;;78.70;;
5710;SDS011;61291;52.524;13.422;2023-07-28T00:53:33;88.47;;;82.73;;
5710;SDS011;61291;52.524;13.422;2023-07-28T00:55:59;90.33;;;84.40;;
5710;SDS011;61291;52.524;13.422;2023-07-28T00:58:25;89.63;;;83.20;;
5710;SDS011;61291;52.524;13.422;2023-07-28T01:00:51;86.83;;;81.07;;
5710;SDS011;61291;52.524;13.422;2023-07-28T01:03:17;92.07;;;85.83;;
5710;SDS011;61291;52.524;13.422;2023-07-28T01:08:26;85.33;;;79.77;;
5710;SDS011;61291;52.524;13.422;2023-07-28T01:10:56;91.70;;;85.93;;
5710;SDS011;61291;52.524;13.422;2023-07-28T01:13:21;88.90;;;83.00;;
5710;SDS011;61291;52.524;13.422;2023-07-28T01:15:47;90.40;;;84.00;;
5710;SDS011;61291;52.524;13.422;2023-07-28T01:18:12;92.23;;;85.73;;
5710;SDS011;61291;52.524;13.422;2023-07-28T01:20:38;92.30;;;86.20;;
5710;SDS011;61291;52.524;13.422;2023-07-28T01:23:20;91.20;;;85.07;;
5710;SDS011;61291;52.524;13.422;2023-07-28T01:26:08;91.13;;;84.47;;
5710;SDS011;61291;52.524;13.422;2023-07-28T01:28:36;86.27;;;80.77;;
5710;SDS011;61291;52.524;13.422;2023-07-28T01:31:02;87.27;;;81.33;;
5710;SDS011;61291;52.524;13.422;2023-07-28T01:33:30;87.87;;;82.13;;
5710;SDS011;61291;52.524;13.422;2023-07-28T01:35:55;86.97;;;81.67;;
5710;SDS011;61291;52.524;13.422;2023-07-28T01:38:21;86.20;;;79.40;;
5710;SDS011;61291;52.524;13.422;2023-07-28T01:40:47;90.00;;;83.67;;
5710;SDS011;61291;52.524;13.422;2023-07-28T01:43:12;88.93;;;82.73;;
5710;SDS011;61291;52.524;13.422;2023-07-28T01:45:38;85.93;;;80.13;;
5710;SDS011;61291;52.524;13.422;2023-07-28T01:48:03;85.90;;;80.27;;
5710;SDS011;61291;52.524;13.422;2023-07-28T01:50:29;89.13;;;82.60;;
5710;SDS011;61291;52.524;13.422;2023-07-28T01:52:54;85.90;;;80.30;;
5710;SDS011;61291;52.524;13.422;2023-07-28T01:55:21;88.23;;;82.67;;
5710;SDS011;61291;52.524;13.422;2023-07-28T01:57:50;88.60;;;82.30;;
5710;SDS011;61291;52.524;13.422;2023-07-28T02:00:19;91.53;;;84.43;;
5710;SDS011;61291;52.524;13.422;2023-07-28T02:02:45;88.60;;;82.67;;
5710;SDS011;61291;52.524;13.422;2023-07-28T02:05:11;93.90;;;87.90;;
5710;SDS011;61291;52.524;13.422;2023-07-28T02:07:37;95.23;;;88.83;;
5710;SDS011;61291;52.524;13.422;2023-07-28T02:10:02;101.53;;;94.93;;
5710;SDS011;61291;52.524;13.422;2023-07-28T02:12:28;95.30;;;88.83;;
5710;SDS011;61291;52.524;13.422;2023-07-28T02:14:53;91.00;;;85.20;;
5710;SDS011;61291;52.524;13.422;2023-07-28T02:17:19;98.10;;;90.97;;
5710;SDS011;61291;52.524;13.422;2023-07-28T02:19:44;102.10;;;95.20;;
5710;SDS011;61291;52.524;13.422;2023-07-28T02:22:10;96.27;;;89.83;;
5710;SDS011;61291;52.524;13.422;2023-07-28T02:24:36;105.53;;;98.43;;
5710;SDS011;61291;52.524;13.422;2023-07-28T02:27:02;106.80;;;99.47;;
5710;SDS011;61291;52.524;13.422;2023-07-28T02:29:27;89.32;;;82.50;;
5710;SDS011;61291;52.524;13.422;2023-07-28T02:31:53;108.30;;;100.87;;
5710;SDS011;61291;52.524;13.422;2023-07-28T02:34:18;101.87;;;94.37;;
5710;SDS011;61291;52.524;13.422;2023-07-28T02:36:44;100.47;;;91.37;;
5710;SDS011;61291;52.524;13.422;2023-07-28T02:39:09;98.30;;;91.47;;
5710;SDS011;61291;52.524;13.422;2023-07-28T02:41:35;100.23;;;92.77;;
5710;SDS011;61291;52.524;13.422;2023-07-28T02:44:00;100.60;;;93.37;;
5710;SDS011;61291;52.524;13.422;2023-07-28T02:46:26;93.20;;;85.70;;
5710;SDS011;61291;52.524;13.422;2023-07-28T02:48:51;102.07;;;94.17;;
5710;SDS011;61291;52.524;13.422;2023-07-28T02:51:17;105.17;;;97.00;;
5710;SDS011;61291;52.524;13.422;2023-07-28T02:53:42;105.30;;;97.90;;
5710;SDS011;61291;52.524;13.422;2023-07-28T02:56:07;105.03;;;97.67;;
5710;SDS011;61291;52.524;13.422;2023-07-28T02:58:33;105.70;;;97.87;;
5710;SDS011;61291;52.524;13.422;2023-07-28T03:00:58;105.07;;;97.57;;
5710;SDS011;61291;52.524;13.422;2023-07-28T03:03:24;104.57;;;96.83;;
5710;SDS011;61291;52.524;13.422;2023-07-28T03:05:51;99.07;;;92.27;;
5710;SDS011;61291;52.524;13.422;2023-07-28T03:08:17;92.82;;;84.93;;
5710;SDS011;61291;52.524;13.422;2023-07-28T03:10:43;113.80;;;105.80;;
5710;SDS011;61291;52.524;13.422;2023-07-28T03:13:08;114.73;;;106.10;;
5710;SDS011;61291;52.524;13.422;2023-07-28T03:15:34;115.73;;;106.37;;
5710;SDS011;61291;52.524;13.422;2023-07-28T03:17:59;99.43;;;91.85;;
5710;SDS011;61291;52.524;13.422;2023-07-28T03:20:25;108.27;;;100.20;;
5710;SDS011;61291;52.524;13.422;2023-07-28T03:22:50;119.67;;;111.10;;
5710;SDS011;61291;52.524;13.422;2023-07-28T03:25:16;108.10;;;98.80;;
5710;SDS011;61291;52.524;13.422;2023-07-28T03:27:41;102.80;;;94.47;;
5710;SDS011;61291;52.524;13.422;2023-07-28T03:30:07;115.73;;;107.33;;
5710;SDS011;61291;52.524;13.422;2023-07-28T03:32:35;111.33;;;103.53;;
5710;SDS011;61291;52.524;13.422;2023-07-28T03:35:01;109.70;;;101.90;;
5710;SDS011;61291;52.524;13.422;2023-07-28T03:37:27;107.10;;;98.90;;
5710;SDS011;61291;52.524;13.422;2023-07-28T03:39:52;110.40;;;101.80;;
5710;SDS011;61291;52.524;13.422;2023-07-28T03:42:18;114.17;;;105.07;;
5710;SDS011;61291;52.524;13.422;2023-07-28T03:44:43;118.93;;;110.43;;
5710;SDS011;61291;52.524;13.422;2023-07-28T03:47:09;108.20;;;99.73;;
5710;SDS011;61291;52.524;13.422;2023-07-28T03:49:34;109.93;;;102.20;;
5710;SDS011;61291;52.524;13.422;2023-07-28T03:52:00;106.83;;;98.47;;
5710;SDS011;61291;52.524;13.422;2023-07-28T03:54:25;116.40;;;107.97;;
5710;SDS011;61291;52.524;13.422;2023-07-28T03:56:51;126.13;;;116.03;;
5710;SDS011;61291;52.524;13.422;2023-07-28T03:59:16;113.20;;;104.53;;
5710;SDS011;61291;52.524;13.422;2023-07-28T04:01:42;115.20;;;106.07;;
5710;SDS011;61291;52.524;13.422;2023-07-28T04:04:07;111.50;;;102.60;;
5710;SDS011;61291;52.524;13.422;2023-07-28T04:06:40;125.33;;;115.93;;
5710;SDS011;61291;52.524;13.422;2023-07-28T04:09:10;111.97;;;103.67;;
5710;SDS011;61291;52.524;13.422;2023-07-28T04:11:37;113.07;;;104.47;;
5710;SDS011;61291;52.524;13.422;2023-07-28T04:14:03;123.70;;;113.93;;
5710;SDS011;61291;52.524;13.422;2023-07-28T04:16:29;115.60;;;107.10;;
5710;SDS011;61291;52.524;13.422;2023-07-28T04:18:55;110.40;;;102.67;;
5710;SDS011;61291;52.524;13.422;2023-07-28T04:21:21;112.20;;;104.17;;
5710;SDS011;61291;52.524;13.422;2023-07-28T04:23:46;117.93;;;109.70;;
5710;SDS011;61291;52.524;13.422;2023-07-28T04:26:12;113.93;;;106.03;;
5710;SDS011;61291;52.524;13.422;2023-07-28T04:28:37;117.73;;;109.63;;
5710;SDS011;61291;52.524;13.422;2023-07-28T04:31:02;118.50;;;110.60;;
5710;SDS011;61291;52.524;13.422;2023-07-28T04:33:28;123.90;;;115.10;;
5710;SDS011;61291;52.524;13.422;2023-07-28T04:35:53;119.20;;;111.40;;
5710;SDS011;61291;52.524;13.422;2023-07-28T04:38:19;115.60;;;107.80;;
5710;SDS011;61291;52.524;13.422;2023-07-28T04:40:44;118.20;;;110.40;;
5710;SDS011;61291;52.524;13.422;2023-07-28T04:43:10;124.87;;;116.23;;
5710;SDS011;61291;52.524;13.422;2023-07-28T04:45:35;118.47;;;110.60;;
5710;SDS011;61291;52.524;13.422;2023-07-28T04:48:01;114.87;;;106.77;;
5710;SDS011;61291;52.524;13.422;2023-07-28T04:50:27;118.93;;;111.27;;
5710;SDS011;61291;52.524;13.422;2023-07-28T04:52:53;125.40;;;116.80;;
5710;SDS011;61291;52.524;13.422;2023-07-28T04:55:19;128.07;;;118.67;;
5710;SDS011;61291;52.524;13.422;2023-07-28T04:57:44;121.60;;;113.47;;
5710;SDS011;61291;52.524;13.422;2023-07-28T05:00:10;117.97;;;110.07;;
5710;SDS011;61291;52.524;13.422;2023-07-28T05:02:36;125.93;;;116.97;;
5710;SDS011;61291;52.524;13.422;2023-07-28T05:05:01;111.77;;;103.87;;
5710;SDS011;61291;52.524;13.422;2023-07-28T05:07:27;115.27;;;106.97;;
5710;SDS011;61291;52.524;13.422;2023-07-28T05:09:54;116.30;;;108.20;;
5710;SDS011;61291;52.524;13.422;2023-07-28T05:12:19;114.47;;;107.07;;
5710;SDS011;61291;52.524;13.422;2023-07-28T05:14:45;113.63;;;105.90;;
5710;SDS011;61291;52.524;13.422;2023-07-28T05:17:11;124.00;;;115.60;;
5710;SDS011;61291;52.524;13.422;2023-07-28T05:19:36;112.70;;;105.30;;
5710;SDS011;61291;52.524;13.422;2023-07-28T05:22:02;114.67;;;107.13;;
5710;SDS011;61291;52.524;13.422;2023-07-28T05:24:28;116.57;;;108.73;;
5710;SDS011;61291;52.524;13.422;2023-07-28T05:26:53;113.27;;;105.90;;
5710;SDS011;61291;52.524;13.422;2023-07-28T05:29:18;115.97;;;108.37;;
5710;SDS011;61291;52.524;13.422;2023-07-28T05:31:44;120.30;;;112.30;;
5710;SDS011;61291;52.524;13.422;2023-07-28T05:34:10;113.37;;;105.83;;
5710;SDS011;61291;52.524;13.422;2023-07-28T05:36:38;112.70;;;104.93;;
5710;SDS011;61291;52.524;13.422;2023-07-28T05:39:03;107.13;;;100.03;;
5710;SDS011;61291;52.524;13.422;2023-07-28T05:41:28;109.17;;;102.20;;
5710;SDS011;61291;52.524;13.422;2023-07-28T05:43:54;108.43;;;101.40;;
5710;SDS011;61291;52.524;13.422;2023-07-28T05:46:19;116.70;;;109.10;;
5710;SDS011;61291;52.524;13.422;2023-07-28T05:48:45;116.83;;;109.43;;
5710;SDS011;61291;52.524;13.422;2023-07-28T05:51:10;120.70;;;112.97;;
5710;SDS011;61291;52.524;13.422;2023-07-28T05:53:36;114.33;;;107.03;;
5710;SDS011;61291;52.524;13.422;2023-07-28T05:56:01;115.97;;;108.30;;
5710;SDS011;61291;52.524;13.422;2023-07-28T05:58:27;109.57;;;101.97;;
5710;SDS011;61291;52.524;13.422;2023-07-28T06:00:52;112.53;;;105.33;;
5710;SDS011;61291;52.524;13.422;2023-07-28T06:03:18;110.43;;;101.90;;
5710;SDS011;61291;52.524;13.422;2023-07-28T06:05:44;112.83;;;105.63;;
5710;SDS011;61291;52.524;13.422;2023-07-28T06:08:09;110.43;;;103.43;;
5710;SDS011;61291;52.524;13.422;2023-07-28T06:10:35;116.70;;;108.80;;
5710;SDS011;61291;52.524;13.422;2023-07-28T06:13:01;116.77;;;108.40;;
5710;SDS011;61291;52.524;13.422;2023-07-28T06:15:27;108.30;;;100.90;;
5710;SDS011;61291;52.524;13.422;2023-07-28T06:17:53;112.10;;;104.90;;
5710;SDS011;61291;52.524;13.422;2023-07-28T06:20:18;102.65;;;95.10;;
5710;SDS011;61291;52.524;13.422;2023-07-28T06:22:44;111.20;;;103.90;;
5710;SDS011;61291;52.524;13.422;2023-07-28T06:25:10;123.40;;;115.03;;
5710;SDS011;61291;52.524;13.422;2023-07-28T06:27:35;109.87;;;102.63;;
5710;SDS011;61291;52.524;13.422;2023-07-28T06:30:01;107.97;;;100.97;;
5710;SDS011;61291;52.524;13.422;2023-07-28T06:32:27;114.00;;;106.60;;
5710;SDS011;61291;52.524;13.422;2023-07-28T06:34:53;107.43;;;99.77;;
5710;SDS011;61291;52.524;13.422;2023-07-28T06:37:19;111.80;;;104.07;;
5710;SDS011;61291;52.524;13.422;2023-07-28T06:39:44;105.83;;;98.67;;
5710;SDS011;61291;52.524;13.422;2023-07-28T06:42:10;108.33;;;101.33;;
5710;SDS011;61291;52.524;13.422;2023-07-28T06:44:36;103.50;;;96.77;;
5710;SDS011;61291;52.524;13.422;2023-07-28T06:47:02;109.33;;;102.30;;
5710;SDS011;61291;52.524;13.422;2023-07-28T06:49:27;111.17;;;103.97;;
5710;SDS011;61291;52.524;13.422;2023-07-28T06:51:53;116.43;;;108.63;;
5710;SDS011;61291;52.524;13.422;2023-07-28T06:54:19;114.07;;;106.87;;
5710;SDS011;61291;52.524;13.422;2023-07-28T06:56:44;109.73;;;102.57;;
5710;SDS011;61291;52.524;13.422;2023-07-28T06:59:10;112.57;;;105.23;;
5710;SDS011;61291;52.524;13.422;2023-07-28T07:01:36;114.57;;;107.07;;
5710;SDS011;61291;52.524;13.422;2023-07-28T07:04:02;118.47;;;109.93;;
5710;SDS011;61291;52.524;13.422;2023-07-28T07:06:29;126.07;;;117.53;;
5710;SDS011;61291;52.524;13.422;2023-07-28T07:08:55;131.63;;;122.60;;
5710;SDS011;61291;52.524;13.422;2023-07-28T07:11:20;107.95;;;101.03;;
5710;SDS011;61291;52.524;13.422;2023-07-28T07:13:46;104.53;;;97.83;;
5710;SDS011;61291;52.524;13.422;2023-07-28T07:16:14;114.80;;;106.93;;
5710;SDS011;61291;52.524;13.422;2023-07-28T07:18:41;112.83;;;105.63;;
5710;SDS011;61291;52.524;13.422;2023-07-28T07:21:10;94.57;;;88.20;;
5710;SDS011;61291;52.524;13.422;2023-07-28T07:23:35;91.00;;;85.10;;
5710;SDS011;61291;52.524;13.422;2023-07-28T07:26:02;96.07;;;90.00;;
5710;SDS011;61291;52.524;13.422;2023-07-28T07:28:28;100.00;;;93.70;;
5710;SDS011;61291;52.524;13.422;2023-07-28T07:30:53;94.20;;;88.00;;
5710;SDS011;61291;52.524;13.422;2023-07-28T07:33:19;87.47;;;81.40;;
5710;SDS011;61291;52.524;13.422;2023-07-28T07:35:45;89.17;;;82.97;;
5710;SDS011;61291;52.524;13.422;2023-07-28T07:38:11;86.10;;;80.10;;
5710;SDS011;61291;52.524;13.422;2023-07-28T07:40:36;91.57;;;85.60;;
5710;SDS011;61291;52.524;13.422;2023-07-28T07:43:04;94.13;;;88.23;;
5710;SDS011;61291;52.524;13.422;2023-07-28T07:45:31;94.00;;;87.93;;
5710;SDS011;61291;52.524;13.422;2023-07-28T07:47:57;93.20;;;87.27;;
5710;SDS011;61291;52.524;13.422;2023-07-28T07:50:23;90.87;;;85.10;;
5710;SDS011;61291;52.524;13.422;2023-07-28T07:52:51;90.87;;;84.93;;
5710;SDS011;61291;52.524;13.422;2023-07-28T07:55:20;77.70;;;72.50;;
5710;SDS011;61291;52.524;13.422;2023-07-28T07:57:46;83.30;;;77.33;;
5710;SDS011;61291;52.524;13.422;2023-07-28T08:00:11;81.97;;;76.07;;
5710;SDS011;61291;52.524;13.422;2023-07-28T08:02:38;82.63;;;77.33;;
5710;SDS011;61291;52.524;13.422;2023-07-28T08:05:04;83.30;;;77.80;;
5710;SDS011;61291;52.524;13.422;2023-07-28T08:07:30;82.30;;;76.00;;
5710;SDS011;61291;52.524;13.422;2023-07-28T08:09:55;80.40;;;74.83;;
5710;SDS011;61291;52.524;13.422;2023-07-28T08:12:21;74.40;;;69.53;;
5710;SDS011;61291;52.524;13.422;2023-07-28T08:14:47;70.40;;;65.50;;
5710;SDS011;61291;52.524;13.422;2023-07-28T08:17:12;71.70;;;66.50;;
5710;SDS011;61291;52.524;13.422;2023-07-28T08:19:38;72.73;;;68.00;;
5710;SDS011;61291;52.524;13.422;2023-07-28T08:22:04;59.00;;;55.20;;
5710;SDS011;61291;52.524;13.422;2023-07-28T08:24:30;71.67;;;66.97;;
5710;SDS011;61291;52.524;13.422;2023-07-28T08:26:56;76.50;;;71.37;;
5710;SDS011;61291;52.524;13.422;2023-07-28T08:29:22;73.90;;;69.20;;
5710;SDS011;61291;52.524;13.422;2023-07-28T08:31:48;74.13;;;69.23;;
5710;SDS011;61291;52.524;13.422;2023-07-28T08:34:13;74.47;;;69.77;;
5710;SDS011;61291;52.524;13.422;2023-07-28T08:36:40;78.67;;;73.73;;
5710;SDS011;61291;52.524;13.422;2023-07-28T08:39:06;77.90;;;72.80;;
5710;SDS011;61291;52.524;13.422;2023-07-28T08:41:31;78.60;;;73.40;;
5710;SDS011;61291;52.524;13.422;2023-07-28T08:43:57;75.97;;;71.17;;
5710;SDS011;61291;52.524;13.422;2023-07-28T08:46:23;75.17;;;70.37;;
5710;SDS011;61291;52.524;13.422;2023-07-28T08:48:48;74.63;;;69.70;;
5710;SDS011;61291;52.524;13.422;2023-07-28T08:51:14;71.63;;;66.90;;
5710;SDS011;61291;52.524;13.422;2023-07-28T08:53:40;67.87;;;63.47;;
5710;SDS011;61291;52.524;13.422;2023-07-28T08:56:05;68.43;;;63.97;;
5710;SDS011;61291;52.524;13.422;2023-07-28T08:58:31;72.57;;;67.70;;
5710;SDS011;61291;52.524;13.422;2023-07-28T09:00:57;67.93;;;63.43;;
5710;SDS011;61291;52.524;13.422;2023-07-28T09:03:26;63.00;;;58.80;;
5710;SDS011;61291;52.524;13.422;2023-07-28T09:05:53;65.70;;;61.30;;
5710;SDS011;61291;52.524;13.422;2023-07-28T09:08:30;70.93;;;65.93;;
5710;SDS011;61291;52.524;13.422;2023-07-28T09:10:55;57.85;;;53.75;;
5710;SDS011;61291;52.524;13.422;2023-07-28T09:13:26;69.50;;;65.00;;
5710;SDS011;61291;52.524;13.422;2023-07-28T09:16:01;69.20;;;64.80;;
5710;SDS011;61291;52.524;13.422;2023-07-28T09:18:26;68.83;;;64.43;;
5710;SDS011;61291;52.524;13.422;2023-07-28T09:20:55;68.67;;;63.90;;
5710;SDS011;61291;52.524;13.422;2023-07-28T09:23:27;70.63;;;66.13;;
5710;SDS011;61291;52.524;13.422;2023-07-28T09:25:58;73.80;;;68.50;;
5710;SDS011;61291;52.524;13.422;2023-07-28T09:28:36;67.73;;;63.37;;
5710;SDS011;61291;52.524;13.422;2023-07-28T09:31:06;65.47;;;61.27;;
5710;SDS011;61291;52.524;13.422;2023-07-28T09:33:33;78.20;;;73.50;;
5710;SDS011;61291;52.524;13.422;2023-07-28T09:36:09;89.50;;;83.53;;
5710;SDS011;61291;52.524;13.422;2023-07-28T09:38:39;71.70;;;67.13;;
5710;SDS011;61291;52.524;13.422;2023-07-28T09:41:07;63.13;;;59.03;;
5710;SDS011;61291;52.524;13.422;2023-07-28T09:43:37;72.57;;;67.63;;
5710;SDS011;61291;52.524;13.422;2023-07-28T09:46:03;77.33;;;72.40;;
5710;SDS011;61291;52.524;13.422;2023-07-28T09:48:31;68.77;;;64.10;;
5710;SDS011;61291;52.524;13.422;2023-07-28T09:51:04;70.10;;;65.70;;
5710;SDS011;61291;52.524;13.422;2023-07-28T09:53:34;66.00;;;61.90;;
5710;SDS011;61291;52.524;13.422;2023-07-28T09:56:05;73.47;;;68.87;;
5710;SDS011;61291;52.524;13.422;2023-07-28T09:58:33;70.73;;;65.73;;
5710;SDS011;61291;52.524;13.422;2023-07-28T10:01:02;72.43;;;67.83;;
5710;SDS011;61291;52.524;13.422;2023-07-28T10:03:30;60.00;;;55.97;;
5710;SDS011;61291;52.524;13.422;2023-07-28T10:05:57;65.57;;;61.07;;
5710;SDS011;61291;52.524;13.422;2023-07-28T10:08:23;60.73;;;56.73;;
5710;SDS011;61291;52.524;13.422;2023-07-28T10:10:49;70.57;;;65.90;;
5710;SDS011;61291;52.524;13.422;2023-07-28T10:13:21;64.43;;;60.33;;
5710;SDS011;61291;52.524;13.422;2023-07-28T10:15:47;67.30;;;62.63;;
5710;SDS011;61291;52.524;13.422;2023-07-28T10:18:13;69.07;;;64.70;;
5710;SDS011;61291;52.524;13.422;2023-07-28T10:20:39;73.30;;;68.70;;
5710;SDS011;61291;52.524;13.422;2023-07-28T10:23:07;78.80;;;74.10;;
5710;SDS011;61291;52.524;13.422;2023-07-28T10:25:37;80.73;;;75.23;;
5710;SDS011;61291;52.524;13.422;2023-07-28T10:28:04;70.40;;;65.90;;
5710;SDS011;61291;52.524;13.422;2023-07-28T10:31:13;73.40;;;68.55;;
5710;SDS011;61291;52.524;13.422;2023-07-28T10:33:53;67.57;;;63.37;;
5710;SDS011;61291;52.524;13.422;2023-07-28T10:36:15;69.93;;;65.50;;
5710;SDS011;61291;52.524;13.422;2023-07-28T10:38:47;62.67;;;58.57;;
5710;SDS011;61291;52.524;13.422;2023-07-28T10:41:25;65.50;;;60.90;;
5710;SDS011;61291;52.524;13.422;2023-07-28T10:43:51;66.33;;;61.73;;
5710;SDS011;61291;52.524;13.422;2023-07-28T10:46:18;81.50;;;75.80;;
5710;SDS011;61291;52.524;13.422;2023-07-28T10:48:47;80.70;;;75.03;;
5710;SDS011;61291;52.524;13.422;2023-07-28T10:51:20;61.30;;;56.80;;
5710;SDS011;61291;52.524;13.422;2023-07-28T10:53:50;70.50;;;65.70;;
5710;SDS011;61291;52.524;13.422;2023-07-28T10:56:16;66.80;;;62.60;;
5710;SDS011;61291;52.524;13.422;2023-07-28T10:58:41;64.80;;;60.70;;
5710;SDS011;61291;52.524;13.422;2023-07-28T11:01:07;63.13;;;58.95;;
5710;SDS011;61291;52.524;13.422;2023-07-28T11:03:32;72.07;;;65.93;;
5710;SDS011;61291;52.524;13.422;2023-07-28T11:05:58;74.53;;;69.17;;
5710;SDS011;61291;52.524;13.422;2023-07-28T11:08:24;80.10;;;74.23;;
5710;SDS011;61291;52.524;13.422;2023-07-28T11:10:50;77.53;;;72.33;;
5710;SDS011;61291;52.524;13.422;2023-07-28T11:13:16;83.67;;;77.77;;
5710;SDS011;61291;52.524;13.422;2023-07-28T11:15:41;79.77;;;74.33;;
5710;SDS011;61291;52.524;13.422;2023-07-28T11:18:07;70.27;;;65.70;;
5710;SDS011;61291;52.524;13.422;2023-07-28T11:20:32;80.20;;;74.70;;
5710;SDS011;61291;52.524;13.422;2023-07-28T11:22:59;80.97;;;75.37;;
5710;SDS011;61291;52.524;13.422;2023-07-28T11:25:26;87.03;;;80.53;;
5710;SDS011;61291;52.524;13.422;2023-07-28T11:27:53;92.83;;;86.70;;
5710;SDS011;61291;52.524;13.422;2023-07-28T11:30:20;96.93;;;90.23;;
5710;SDS011;61291;52.524;13.422;2023-07-28T11:32:47;88.00;;;82.40;;
5710;SDS011;61291;52.524;13.422;2023-07-28T11:35:15;90.10;;;84.03;;
5710;SDS011;61291;52.524;13.422;2023-07-28T11:37:42;87.70;;;81.50;;
5710;SDS011;61291;52.524;13.422;2023-07-28T11:40:10;90.23;;;84.37;;
5710;SDS011;61291;52.524;13.422;2023-07-28T11:42:40;92.30;;;86.30;;
5710;SDS011;61291;52.524;13.422;2023-07-28T11:45:08;97.30;;;91.03;;
5710;SDS011;61291;52.524;13.422;2023-07-28T11:47:35;91.40;;;85.13;;
5710;SDS011;61291;52.524;13.422;2023-07-28T11:50:00;91.87;;;85.77;;
5710;SDS011;61291;52.524;13.422;2023-07-28T11:52:32;87.60;;;82.00;;
5710;SDS011;61291;52.524;13.422;2023-07-28T11:54:59;94.93;;;88.27;;
5710;SDS011;61291;52.524;13.422;2023-07-28T11:57:26;88.03;;;81.87;;
5710;SDS011;61291;52.524;13.422;2023-07-28T11:59:55;92.87;;;86.97;;
5710;SDS011;61291;52.524;13.422;2023-07-28T12:02:28;91.63;;;85.63;;
5710;SDS011;61291;52.524;13.422;2023-07-28T12:04:55;92.40;;;86.60;;
5710;SDS011;61291;52.524;13.422;2023-07-28T12:07:32;91.40;;;85.70;;
5710;SDS011;61291;52.524;13.422;2023-07-28T12:10:05;94.07;;;88.30;;
5710;SDS011;61291;52.524;13.422;2023-07-28T12:12:39;86.63;;;81.20;;
5710;SDS011;61291;52.524;13.422;2023-07-28T12:15:19;89.50;;;83.90;;
5710;SDS011;61291;52.524;13.422;2023-07-28T12:20:43;72.70;;;68.13;;
5710;SDS011;61291;52.524;13.422;2023-07-28T12:23:11;81.07;;;75.80;;
5710;SDS011;61291;52.524;13.422;2023-07-28T12:25:38;78.23;;;72.97;;
5710;SDS011;61291;52.524;13.422;2023-07-28T12:28:04;81.87;;;76.60;;
5710;SDS011;61291;52.524;13.422;2023-07-28T12:30:30;84.00;;;78.63;;
5710;SDS011;61291;52.524;13.422;2023-07-28T12:32:56;82.80;;;77.50;;
5710;SDS011;61291;52.524;13.422;2023-07-28T12:35:22;81.83;;;76.63;;
5710;SDS011;61291;52.524;13.422;2023-07-28T12:37:51;80.87;;;75.70;;
5710;SDS011;61291;52.524;13.422;2023-07-28T12:40:17;88.37;;;82.57;;
5710;SDS011;61291;52.524;13.422;2023-07-28T12:42:46;79.80;;;74.60;;
5710;SDS011;61291;52.524;13.422;2023-07-28T12:45:12;89.60;;;83.90;;
5710;SDS011;61291;52.524;13.422;2023-07-28T12:47:39;84.60;;;79.30;;
5710;SDS011;61291;52.524;13.422;2023-07-28T12:50:05;85.53;;;79.57;;
5710;SDS011;61291;52.524;13.422;2023-07-28T12:52:34;79.37;;;74.27;;
5710;SDS011;61291;52.524;13.422;2023-07-28T12:55:01;84.40;;;78.70;;
5710;SDS011;61291;52.524;13.422;2023-07-28T12:57:27;81.93;;;76.77;;
5710;SDS011;61291;52.524;13.422;2023-07-28T12:59:52;84.17;;;79.10;;
5710;SDS011;61291;52.524;13.422;2023-07-28T13:02:18;83.77;;;78.17;;
5710;SDS011;61291;52.524;13.422;2023-07-28T13:04:43;82.43;;;77.07;;
5710;SDS011;61291;52.524;13.422;2023-07-28T13:07:09;80.17;;;74.77;;
5710;SDS011;61291;52.524;13.422;2023-07-28T13:09:34;81.60;;;75.30;;
5710;SDS011;61291;52.524;13.422;2023-07-28T13:12:00;72.83;;;67.93;;
5710;SDS011;61291;52.524;13.422;2023-07-28T13:14:25;77.57;;;71.83;;
5710;SDS011;61291;52.524;13.422;2023-07-28T13:16:51;68.43;;;63.93;;
5710;SDS011;61291;52.524;13.422;2023-07-28T13:19:16;75.03;;;69.87;;
5710;SDS011;61291;52.524;13.422;2023-07-28T13:21:42;63.80;;;59.77;;
5710;SDS011;61291;52.524;13.422;2023-07-28T13:24:07;73.97;;;69.20;;
5710;SDS011;61291;52.524;13.422;2023-07-28T13:26:33;70.70;;;66.10;;
5710;SDS011;61291;52.524;13.422;2023-07-28T13:28:58;83.17;;;78.17;;
5710;SDS011;61291;52.524;13.422;2023-07-28T13:31:26;71.20;;;66.40;;
5710;SDS011;61291;52.524;13.422;2023-07-28T13:33:55;64.43;;;60.10;;
5710;SDS011;61291;52.524;13.422;2023-07-28T13:36:20;64.60;;;60.27;;
5710;SDS011;61291;52.524;13.422;2023-07-28T13:38:46;69.63;;;65.07;;
5710;SDS011;61291;52.524;13.422;2023-07-28T13:41:11;67.27;;;62.73;;
5710;SDS011;61291;52.524;13.422;2023-07-28T13:43:37;69.50;;;64.87;;
5710;SDS011;61291;52.524;13.422;2023-07-28T13:46:03;71.10;;;66.07;;
5710;SDS011;61291;52.524;13.422;2023-07-28T13:48:32;70.47;;;65.57;;
5710;SDS011;61291;52.524;13.422;2023-07-28T13:50:58;74.23;;;69.53;;
5710;SDS011;61291;52.524;13.422;2023-07-28T13:53:24;68.43;;;63.73;;
5710;SDS011;61291;52.524;13.422;2023-07-28T13:55:50;81.20;;;75.90;;
5710;SDS011;61291;52.524;13.422;2023-07-28T13:58:16;76.60;;;71.70;;
5710;SDS011;61291;52.524;13.422;2023-07-28T14:00:41;75.20;;;70.50;;
5710;SDS011;61291;52.524;13.422;2023-07-28T14:03:07;77.07;;;71.70;;
5710;SDS011;61291;52.524;13.422;2023-07-28T14:05:32;81.20;;;76.30;;
5710;SDS011;61291;52.524;13.422;2023-07-28T14:07:58;67.63;;;63.20;;
5710;SDS011;61291;52.524;13.422;2023-07-28T14:10:23;74.00;;;69.40;;
5710;SDS011;61291;52.524;13.422;2023-07-28T14:12:49;63.30;;;59.00;;
5710;SDS011;61291;52.524;13.422;2023-07-28T14:15:15;67.30;;;62.90;;